Time;durP1;ratioP1;P1;durP2;ratioP2;P2;SDS_P1;SDS_P2;PMS_P1;PMS_P2;Temp;Humidity;BMP_temperature;BMP_pressure;BME280_temperature;BME280_humidity;BME280_pressure;Samples;Min_cycle;Max_cycle;Signal;HPM_P1;HPM_P2
2020/12/07 00:05:54;;;;;;;26.27;9.68;;;;;;;-5.81;68.89;101128.40;1516020;90;21234;-69
2020/12/07 00:08:39;;;;;;;21.65;8.88;;;;;;;-5.82;68.70;101138.33;1923949;74;22724;-68
2020/12/07 00:15:01;;;;;;;24.67;10.03;;;;;;;-5.92;68.74;101134.45;1859113;76;20995;-68
2020/12/07 00:17:31;;;;;;;23.70;9.53;;;;;;;-5.95;68.84;101144.20;1786881;79;21150;-69
2020/12/07 00:23:52;;;;;;;23.18;8.28;;;;;;;-5.95;69.01;101139.36;1715815;83;21137;-68
2020/12/07 00:26:22;;;;;;;22.50;9.88;;;;;;;-5.95;68.83;101135.33;1717437;83;21202;-68
2020/12/07 00:29:14;;;;;;;20.15;8.85;;;;;;;-6.00;68.79;101138.01;1721431;82;21581;-68
2020/12/07 00:31:47;;;;;;;19.75;9.33;;;;;;;-6.02;68.75;101131.96;1724012;82;21136;-69
2020/12/07 00:34:18;;;;;;;21.12;8.65;;;;;;;-6.04;68.88;101138.52;1708972;82;21259;-69
2020/12/07 00:36:47;;;;;;;21.97;10.25;;;;;;;-6.04;68.94;101142.02;1731337;82;21169;-69
2020/12/07 00:39:37;;;;;;;22.95;8.68;;;;;;;-6.05;68.82;101139.55;1840718;76;21072;-70
2020/12/07 00:42:44;;;;;;;19.10;8.95;;;;;;;-6.07;68.69;101138.90;1869474;76;22319;-70
2020/12/07 00:45:12;;;;;;;23.32;8.53;;;;;;;-6.12;68.58;101136.20;1800073;79;22193;-69
2020/12/07 00:47:50;;;;;;;22.60;8.48;;;;;;;-6.16;68.62;101135.37;1801295;79;21110;-70
2020/12/07 00:50:17;;;;;;;25.37;9.80;;;;;;;-6.23;68.80;101134.69;1797610;79;21107;-70
2020/12/07 00:53:10;;;;;;;23.42;8.95;;;;;;;-6.25;68.83;101131.86;1773402;79;21115;-69
2020/12/07 00:56:03;;;;;;;22.58;9.33;;;;;;;-6.27;68.92;101133.38;1765962;80;21514;-69
2020/12/07 00:58:33;;;;;;;21.73;9.75;;;;;;;-6.29;68.90;101135.37;1835009;77;22029;-69
2020/12/07 01:01:23;;;;;;;23.18;9.00;;;;;;;-6.28;68.97;101128.17;1821895;78;21153;-68
2020/12/07 01:04:31;;;;;;;24.02;10.53;;;;;;;-6.26;68.90;101132.88;1803189;78;21151;-68
2020/12/07 01:07:01;;;;;;;28.62;9.33;;;;;;;-6.27;68.77;101128.50;1824517;78;21109;-69
2020/12/07 01:09:31;;;;;;;23.27;10.38;;;;;;;-6.26;68.87;101128.85;1828302;77;22259;-69
2020/12/07 01:12:02;;;;;;;24.57;10.90;;;;;;;-6.26;68.65;101124.83;1828343;77;21150;-68
2020/12/07 01:14:42;;;;;;;24.43;9.00;;;;;;;-6.27;68.72;101127.16;1829894;77;21118;-68
2020/12/07 01:17:21;;;;;;;25.02;10.58;;;;;;;-6.30;68.58;101112.73;1804013;78;21102;-69
2020/12/07 01:19:53;;;;;;;20.32;9.20;;;;;;;-6.31;68.62;101115.91;1823970;78;21131;-69
2020/12/07 01:22:44;;;;;;;24.52;10.28;;;;;;;-6.32;68.49;101118.27;1828478;77;22345;-69
2020/12/07 01:25:23;;;;;;;23.45;10.50;;;;;;;-6.37;68.33;101108.05;1827640;77;21115;-69
2020/12/07 01:28:34;;;;;;;19.75;9.38;;;;;;;-6.41;68.38;101106.70;1830837;77;21165;-70
2020/12/07 01:31:02;;;;;;;27.50;10.65;;;;;;;-6.45;68.34;101104.03;1825019;77;21535;-69
2020/12/07 01:34:07;;;;;;;27.25;10.50;;;;;;;-6.49;68.40;101108.05;1832332;77;22123;-69
2020/12/07 01:36:56;;;;;;;27.27;10.85;;;;;;;-6.54;68.48;101111.73;1821288;77;21213;-70
2020/12/07 01:40:08;;;;;;;22.10;9.85;;;;;;;-6.55;68.54;101116.25;1817665;77;21109;-69
2020/12/07 01:42:36;;;;;;;27.75;11.18;;;;;;;-6.56;68.51;101113.73;1808461;77;21134;-69
2020/12/07 01:45:26;;;;;;;22.62;10.15;;;;;;;-6.56;68.42;101119.10;1831057;77;21203;-69
2020/12/07 01:47:55;;;;;;;23.77;10.80;;;;;;;-6.60;68.34;101115.42;1809310;77;21135;-69
2020/12/07 01:50:22;;;;;;;26.50;10.08;;;;;;;-6.64;68.43;101112.75;1841700;77;22081;-69
2020/12/07 01:52:51;;;;;;;28.12;10.82;;;;;;;-6.69;68.41;101115.59;1827458;77;21102;-69
2020/12/07 01:55:21;;;;;;;24.65;10.93;;;;;;;-6.71;68.77;101113.07;1790417;77;21091;-71
2020/12/07 01:57:51;;;;;;;22.93;10.63;;;;;;;-6.69;68.63;101109.73;1832962;77;21169;-70
2020/12/07 02:00:41;;;;;;;25.12;9.80;;;;;;;-6.69;68.65;101097.66;1821384;77;21099;-67
2020/12/07 02:03:37;;;;;;;25.65;10.85;;;;;;;-6.68;68.56;101095.30;1821550;77;22173;-69
2020/12/07 02:06:36;;;;;;;24.82;10.13;;;;;;;-6.67;68.59;101095.63;1827981;77;21633;-69
2020/12/07 02:09:04;;;;;;;24.47;9.10;;;;;;;-6.64;68.53;101095.81;1831973;77;21583;-70
2020/12/07 02:12:01;;;;;;;25.50;11.18;;;;;;;-6.63;68.55;101096.13;1821369;77;21138;-70
2020/12/07 02:14:30;;;;;;;27.22;10.13;;;;;;;-6.63;68.47;101103.69;1829897;78;21114;-69
2020/12/07 02:17:26;;;;;;;34.50;10.90;;;;;;;-6.63;68.26;101106.86;1821104;77;21161;-69
2020/12/07 02:19:58;;;;;;;23.25;8.93;;;;;;;-6.69;68.11;101111.07;1837539;77;21552;-69
2020/12/07 02:23:17;;;;;;;29.42;10.48;;;;;;;-6.74;68.15;101118.77;1827297;78;21137;-70
2020/12/07 02:25:55;;;;;;;23.07;10.43;;;;;;;-6.77;68.27;101119.11;1757866;81;21605;-70
2020/12/07 02:28:51;;;;;;;20.27;9.43;;;;;;;-6.80;68.27;101115.39;1763830;80;21553;-69
2020/12/07 02:31:21;;;;;;;26.15;9.88;;;;;;;-6.84;68.21;101113.05;1827938;77;21123;-71
2020/12/07 02:34:21;;;;;;;21.73;9.25;;;;;;;-6.83;68.28;101105.84;1827804;78;21526;-70
2020/12/07 02:37:31;;;;;;;18.73;8.53;;;;;;;-6.86;68.18;101109.69;1809677;78;21138;-69
2020/12/07 02:40:24;;;;;;;22.65;9.88;;;;;;;-6.88;68.22;101106.35;1777190;77;21150;-70
2020/12/07 02:43:18;;;;;;;24.47;7.90;;;;;;;-6.89;68.09;101118.06;1753729;80;21509;-72
2020/12/07 02:45:50;;;;;;;26.73;8.50;;;;;;;-6.92;68.05;101113.03;1813488;77;21368;-70
2020/12/07 02:48:17;;;;;;;20.15;9.25;;;;;;;-6.95;67.98;101114.71;1812243;77;21150;-71
2020/12/07 02:51:08;;;;;;;25.25;9.40;;;;;;;-6.98;68.17;101116.38;1832963;77;21416;-72
2020/12/07 02:53:59;;;;;;;25.10;9.45;;;;;;;-6.96;68.07;101112.52;1808398;77;21114;-70
2020/12/07 02:56:31;;;;;;;25.32;9.40;;;;;;;-6.96;68.08;101109.84;1809261;78;21137;-70
2020/12/07 02:59:02;;;;;;;23.40;8.53;;;;;;;-6.90;68.07;101119.57;1828447;77;22372;-71
2020/12/07 03:01:32;;;;;;;26.90;8.53;;;;;;;-6.90;67.98;101122.25;1831507;78;21078;-70
2020/12/07 03:04:41;;;;;;;31.85;9.40;;;;;;;-6.91;67.83;101127.29;1830162;77;21102;-71
2020/12/07 03:07:12;;;;;;;20.55;8.93;;;;;;;-6.97;67.80;101137.66;1807884;77;21503;-71
2020/12/07 03:10:22;;;;;;;29.02;9.80;;;;;;;-6.98;67.78;101131.13;1817392;78;21082;-70
2020/12/07 03:12:57;;;;;;;20.15;8.78;;;;;;;-6.99;67.93;101132.96;1822800;78;21194;-70
2020/12/07 03:15:27;;;;;;;21.82;8.00;;;;;;;-6.98;67.92;101139.17;1819261;78;21110;-70
2020/12/07 03:18:00;;;;;;;23.10;9.48;;;;;;;-6.97;67.81;101129.63;1802865;79;21579;-70
2020/12/07 03:20:56;;;;;;;21.50;9.10;;;;;;;-6.94;67.75;101132.98;1766871;80;21170;-69
2020/12/07 03:24:06;;;;;;;26.17;9.43;;;;;;;-6.97;67.57;101123.41;1762552;80;21149;-69
2020/12/07 03:26:35;;;;;;;18.35;7.90;;;;;;;-6.99;67.57;101125.41;1770417;80;21201;-70
2020/12/07 03:29:05;;;;;;;20.32;9.03;;;;;;;-7.00;67.58;101129.11;1762930;80;21174;-70
2020/12/07 03:32:00;;;;;;;29.02;9.48;;;;;;;-7.03;67.38;101110.67;1763988;80;21093;-68
2020/12/07 03:35:12;;;;;;;22.07;8.28;;;;;;;-7.05;67.35;101109.50;1760327;80;21119;-68
2020/12/07 03:38:04;;;;;;;26.25;9.10;;;;;;;-7.05;67.32;101106.82;1767173;80;21142;-69
2020/12/07 03:40:55;;;;;;;18.42;8.38;;;;;;;-7.08;67.44;101103.14;1819402;78;21157;-69
2020/12/07 03:43:52;;;;;;;19.67;8.25;;;;;;;-7.07;67.43;101103.95;1820595;78;21091;-70
2020/12/07 03:47:02;;;;;;;20.00;8.05;;;;;;;-7.10;67.30;101110.49;1823549;78;21157;-70
2020/12/07 03:49:55;;;;;;;19.10;7.92;;;;;;;-7.12;67.42;101110.66;1800436;77;21610;-71
2020/12/07 03:52:49;;;;;;;17.75;7.90;;;;;;;-7.14;67.23;101109.98;1820270;78;21546;-70
2020/12/07 03:55:44;;;;;;;23.25;8.68;;;;;;;-7.15;67.29;101101.61;1819410;78;21165;-69
2020/12/07 03:58:17;;;;;;;21.20;8.65;;;;;;;-7.18;67.25;101104.59;1821624;78;21130;-70
2020/12/07 04:01:25;;;;;;;20.32;7.67;;;;;;;-7.17;67.24;101104.10;1798461;78;21157;-70
2020/12/07 04:04:17;;;;;;;16.37;8.20;;;;;;;-7.14;67.25;101109.13;1818039;78;21153;-70
2020/12/07 04:06:45;;;;;;;21.85;9.15;;;;;;;-7.15;67.16;101112.33;1823506;78;21153;-70
2020/12/07 04:09:17;;;;;;;14.53;6.57;;;;;;;-7.15;67.24;101110.14;1837078;77;22308;-69
2020/12/07 04:11:46;;;;;;;20.82;8.28;;;;;;;-7.16;67.11;101109.78;1818190;78;21162;-72
2020/12/07 04:14:14;;;;;;;19.87;7.90;;;;;;;-7.18;67.04;101116.65;1826765;78;21114;-70
2020/12/07 04:16:43;;;;;;;20.17;8.15;;;;;;;-7.21;67.15;101111.63;1829853;78;21615;-71
2020/12/07 04:19:13;;;;;;;22.67;8.30;;;;;;;-7.22;67.12;101110.80;1836600;78;21097;-71
2020/12/07 04:22:23;;;;;;;21.85;8.40;;;;;;;-7.23;67.07;101113.62;1826394;78;21135;-70
2020/12/07 04:24:51;;;;;;;18.75;8.18;;;;;;;-7.23;67.07;101118.48;1806833;78;21657;-69
2020/12/07 04:27:38;;;;;;;21.82;8.80;;;;;;;-7.24;67.11;101109.27;1817595;78;21229;-69
2020/12/07 04:30:09;;;;;;;25.82;7.85;;;;;;;-7.27;67.25;101107.77;1822472;78;21162;-69
2020/12/07 04:33:01;;;;;;;22.73;8.60;;;;;;;-7.24;67.07;101102.58;1823795;77;21197;-69
2020/12/07 04:35:31;;;;;;;18.50;8.03;;;;;;;-7.25;67.12;101110.29;1826476;78;21199;-69
2020/12/07 04:38:18;;;;;;;17.50;7.72;;;;;;;-7.23;67.10;101105.58;1762795;79;24058;-68
2020/12/07 04:41:06;;;;;;;23.40;8.75;;;;;;;-7.28;67.04;101106.08;1734495;82;21126;-68
2020/12/07 04:43:54;;;;;;;21.97;7.08;;;;;;;-7.33;67.12;101101.70;1733848;82;21442;-68
2020/12/07 04:46:25;;;;;;;21.93;8.38;;;;;;;-7.33;66.96;101100.37;1732270;82;21141;-71
2020/12/07 04:48:57;;;;;;;21.75;7.42;;;;;;;-7.36;67.03;101092.66;1733465;82;21158;-69
2020/12/07 04:52:09;;;;;;;21.77;7.72;;;;;;;-7.37;67.18;101098.51;1718021;82;21304;-69
2020/12/07 04:54:38;;;;;;;19.55;7.25;;;;;;;-7.38;67.22;101099.52;1709354;83;21136;-69
2020/12/07 04:57:05;;;;;;;16.35;8.13;;;;;;;-7.39;67.37;101095.17;1658519;83;21211;-71
2020/12/07 04:59:57;;;;;;;21.77;7.90;;;;;;;-7.39;67.19;101091.64;1704196;83;21193;-68
2020/12/07 05:02:51;;;;;;;18.80;8.23;;;;;;;-7.41;67.36;101081.09;1679890;83;21165;-69
2020/12/07 05:05:23;;;;;;;25.27;8.95;;;;;;;-7.38;67.59;101074.07;1683911;83;21140;-70
2020/12/07 05:07:54;;;;;;;19.80;7.85;;;;;;;-7.33;67.44;101074.42;1705944;83;21102;-69
2020/12/07 05:11:01;;;;;;;30.37;10.05;;;;;;;-7.33;67.38;101073.08;1705086;83;21102;-69
2020/12/07 05:16:55;;;;;;;22.07;7.58;;;;;;;-7.25;66.92;101066.08;1789105;78;22745;-70
2020/12/07 05:19:24;;;;;;;22.50;8.30;;;;;;;-7.31;66.80;101077.42;1752969;80;21161;-69
2020/12/07 05:21:54;;;;;;;15.32;7.30;;;;;;;-7.34;66.95;101071.42;1773007;80;21279;-69
2020/12/07 05:25:05;;;;;;;16.67;8.35;;;;;;;-7.30;66.90;101072.42;1763254;80;21673;-70
2020/12/07 05:27:34;;;;;;;25.43;9.38;;;;;;;-7.29;66.82;101063.38;1773461;80;21287;-71
2020/12/07 05:30:17;;;;;;;20.30;9.13;;;;;;;-7.30;66.82;101073.24;1773199;80;21233;-70
2020/12/07 05:33:09;;;;;;;24.40;8.65;;;;;;;-7.30;66.79;101071.09;1774519;79;21220;-70
2020/12/07 05:35:57;;;;;;;23.15;8.10;;;;;;;-7.29;66.85;101075.43;1747697;79;21996;-69
2020/12/07 05:38:35;;;;;;;25.77;9.38;;;;;;;-7.29;66.71;101072.75;1710327;82;21213;-71
2020/12/07 05:41:05;;;;;;;23.00;9.50;;;;;;;-7.29;66.67;101088.83;1701372;82;21137;-69
2020/12/07 05:44:00;;;;;;;20.77;7.97;;;;;;;-7.33;66.58;101088.31;1695801;83;21173;-70
2020/12/07 05:46:28;;;;;;;26.02;9.03;;;;;;;-7.38;66.75;101096.84;1711172;82;21578;-70
2020/12/07 05:48:56;;;;;;;20.27;8.13;;;;;;;-7.41;66.90;101093.16;1710456;82;21469;-70
2020/12/07 05:51:25;;;;;;;19.23;8.90;;;;;;;-7.41;66.99;101100.34;1689566;82;21287;-70
2020/12/07 05:54:15;;;;;;;22.32;8.28;;;;;;;-7.41;66.89;101105.20;1675312;84;21626;-69
2020/12/07 05:57:21;;;;;;;20.80;8.95;;;;;;;-7.42;66.98;101104.03;1675711;84;21192;-70
2020/12/07 05:59:48;;;;;;;25.62;9.60;;;;;;;-7.40;67.00;101113.57;1671417;83;21171;-70
2020/12/07 06:02:51;;;;;;;23.10;8.75;;;;;;;-7.41;67.08;101111.05;1692013;84;22538;-71
2020/12/07 06:05:47;;;;;;;23.92;9.45;;;;;;;-7.40;67.17;101108.21;1700888;83;21147;-71
2020/12/07 06:08:39;;;;;;;24.02;9.63;;;;;;;-7.37;67.14;101107.06;1712882;82;21194;-71
2020/12/07 06:11:08;;;;;;;28.30;10.68;;;;;;;-7.34;67.23;101112.95;1674224;82;21164;-71
2020/12/07 06:13:43;;;;;;;23.20;8.88;;;;;;;-7.28;67.09;101113.30;1716695;81;21544;-70
2020/12/07 06:16:10;;;;;;;20.75;9.20;;;;;;;-7.25;67.02;101107.61;1716755;82;22185;-71
2020/12/07 06:19:15;;;;;;;28.98;10.00;;;;;;;-7.25;66.94;101096.89;1668661;84;21591;-70
2020/12/07 06:22:02;;;;;;;31.90;9.53;;;;;;;-7.23;66.92;101098.39;1699247;83;21102;-72
2020/12/07 06:25:17;;;;;;;30.10;10.35;;;;;;;-7.23;66.86;101093.52;1681238;83;21230;-70
2020/12/07 06:27:48;;;;;;;31.50;9.98;;;;;;;-7.23;66.96;101091.69;1716875;82;21276;-71
2020/12/07 06:30:33;;;;;;;22.73;9.43;;;;;;;-7.19;66.96;101092.70;1718618;82;22246;-69
2020/12/07 06:33:08;;;;;;;20.52;8.38;;;;;;;-7.16;67.06;101095.89;1665065;84;21248;-70
2020/12/07 06:35:47;;;;;;;19.52;8.35;;;;;;;-7.11;67.00;101090.03;1695450;83;21132;-70
2020/12/07 06:38:16;;;;;;;22.85;9.08;;;;;;;-7.05;66.74;101089.40;1692172;84;21288;-70
2020/12/07 06:40:44;;;;;;;27.25;10.18;;;;;;;-7.03;66.62;101091.42;1673904;84;21587;-72
2020/12/07 06:43:41;;;;;;;22.95;8.40;;;;;;;-7.01;66.40;101088.05;1683357;82;21393;-70
2020/12/07 06:47:01;;;;;;;23.18;9.35;;;;;;;-6.97;66.43;101078.69;1729780;82;21575;-70
2020/12/07 06:49:49;;;;;;;22.30;9.15;;;;;;;-6.95;66.31;101079.86;1722772;82;21135;-69
2020/12/07 06:52:17;;;;;;;28.90;10.60;;;;;;;-6.93;66.40;101079.20;1723655;80;22240;-69
2020/12/07 06:55:06;;;;;;;31.45;11.40;;;;;;;-6.87;66.36;101081.70;1708171;80;21194;-69
2020/12/07 06:57:47;;;;;;;28.17;10.58;;;;;;;-6.86;66.20;101083.39;1711426;82;22672;-68
2020/12/07 07:00:20;;;;;;;24.10;8.05;;;;;;;-6.80;66.37;101085.89;1709093;82;21193;-68
2020/12/07 07:02:59;;;;;;;27.35;10.23;;;;;;;-6.74;66.29;101090.61;1728008;80;21643;-68
2020/12/07 07:05:50;;;;;;;22.75;9.70;;;;;;;-6.70;66.17;101083.89;1703847;80;21151;-70
2020/12/07 07:08:59;;;;;;;20.70;8.50;;;;;;;-6.65;66.19;101089.59;1699963;80;21182;-69
2020/12/07 07:12:07;;;;;;;23.70;9.35;;;;;;;-6.60;65.89;101092.62;1678762;83;21154;-69
2020/12/07 07:14:41;;;;;;;24.27;9.03;;;;;;;-6.58;65.82;101095.66;1661598;85;21198;-68
2020/12/07 07:17:11;;;;;;;21.52;8.50;;;;;;;-6.53;65.76;101096.81;1708865;82;21173;-70
2020/12/07 07:19:45;;;;;;;18.27;9.05;;;;;;;-6.49;65.70;101095.98;1699479;82;21136;-69
2020/12/07 07:22:18;;;;;;;21.52;7.85;;;;;;;-6.45;65.73;101094.64;1717264;81;21127;-69
2020/12/07 07:30:14;;;;;;;23.35;8.90;;;;;;;-6.25;65.78;101078.18;1693947;82;21159;-69
2020/12/07 07:32:45;;;;;;;28.52;9.63;;;;;;;-6.16;65.46;101084.38;1699412;83;21135;-70
2020/12/07 07:35:16;;;;;;;26.77;9.88;;;;;;;-6.14;65.49;101080.50;1691009;83;21157;-69
2020/12/07 07:38:05;;;;;;;21.30;9.73;;;;;;;-6.06;65.39;101082.84;1732197;81;21443;-69
2020/12/07 07:40:39;;;;;;;15.53;8.60;;;;;;;-6.03;65.41;101085.16;1717724;80;21133;-69
2020/12/07 07:43:28;;;;;;;19.40;7.10;;;;;;;-5.95;65.31;101082.44;1723216;82;21193;-69
2020/12/07 07:46:02;;;;;;;23.00;10.25;;;;;;;-5.90;64.97;101088.14;1717872;80;21189;-68
2020/12/07 07:48:37;;;;;;;22.85;9.93;;;;;;;-5.84;64.83;101093.34;1706938;80;21201;-69
2020/12/07 07:57:46;;;;;;;23.90;10.18;;;;;;;-5.72;64.01;101085.75;1713515;81;21129;-69
2020/12/07 08:15:35;;;;;;;21.35;9.45;;;;;;;-5.23;63.74;101068.21;1814886;77;22813;-68
2020/12/07 08:18:01;;;;;;;31.60;9.85;;;;;;;-5.18;63.84;101070.71;1706768;83;21629;-67
2020/12/07 08:20:37;;;;;;;20.20;8.80;;;;;;;-5.07;63.69;101068.63;1733928;81;21498;-71
2020/12/07 08:23:15;;;;;;;24.45;10.90;;;;;;;-4.97;63.68;101065.20;1722291;82;21170;-70
2020/12/07 08:25:51;;;;;;;23.87;9.48;;;;;;;-4.87;63.40;101072.19;1710617;83;21142;-72
2020/12/07 08:28:37;;;;;;;31.12;8.95;;;;;;;-4.77;63.08;101067.41;1719086;82;21164;-71
2020/12/07 08:31:29;;;;;;;21.68;10.23;;;;;;;-4.71;62.80;101072.59;1719491;83;21118;-70
2020/12/07 08:34:17;;;;;;;21.73;9.48;;;;;;;-4.61;62.71;101069.14;1697493;81;21198;-71
2020/12/07 08:37:09;;;;;;;22.95;8.55;;;;;;;-4.51;62.56;101071.58;1749036;80;21018;-69
2020/12/07 08:39:37;;;;;;;22.07;10.15;;;;;;;-4.43;62.13;101072.85;1740987;80;21594;-69
2020/12/07 08:42:06;;;;;;;22.98;9.75;;;;;;;-4.38;62.03;101058.84;1724360;81;21145;-68
2020/12/07 08:44:33;;;;;;;26.97;10.60;;;;;;;-4.31;61.94;101058.44;1741019;80;21125;-70
2020/12/07 08:47:43;;;;;;;27.15;11.25;;;;;;;-4.22;61.99;101059.70;1734551;80;21590;-70
2020/12/07 08:50:10;;;;;;;22.58;10.18;;;;;;;-4.12;61.71;101050.01;1727099;82;21170;-70
2020/12/07 08:52:37;;;;;;;24.32;9.53;;;;;;;-4.05;61.62;101053.14;1699047;83;21147;-69
2020/12/07 08:55:07;;;;;;;25.57;11.25;;;;;;;-3.96;61.43;101055.21;1707851;82;21173;-72
2020/12/07 08:57:40;;;;;;;24.63;9.73;;;;;;;-3.88;60.89;101051.61;1710029;82;21157;-70
2020/12/07 09:00:08;;;;;;;21.95;9.30;;;;;;;-3.86;60.62;101055.45;1715390;82;21138;-70
2020/12/07 09:02:36;;;;;;;18.73;7.75;;;;;;;-3.83;60.73;101051.88;1704039;82;21662;-71
2020/12/07 09:05:04;;;;;;;23.47;9.43;;;;;;;-3.74;60.42;101061.21;1704264;83;21109;-70
2020/12/07 09:07:33;;;;;;;23.75;9.25;;;;;;;-3.71;60.14;101056.80;1698644;83;21114;-71
2020/12/07 09:10:01;;;;;;;22.25;10.05;;;;;;;-3.70;59.62;101050.40;1690700;83;21153;-69
2020/12/07 09:12:28;;;;;;;24.25;9.28;;;;;;;-3.69;59.67;101045.33;1702650;82;21672;-69
2020/12/07 09:15:05;;;;;;;23.45;10.03;;;;;;;-3.69;59.45;101043.47;1686301;83;21139;-70
2020/12/07 09:17:43;;;;;;;23.75;10.15;;;;;;;-3.65;59.59;101039.87;1746577;81;21120;-70
2020/12/07 09:20:40;;;;;;;30.17;10.08;;;;;;;-3.60;59.49;101045.53;1738330;81;21210;-68
2020/12/07 09:23:09;;;;;;;19.98;9.13;;;;;;;-3.49;59.70;101042.03;1702554;81;21157;-68
2020/12/07 09:26:19;;;;;;;22.30;9.13;;;;;;;-3.40;59.73;101028.78;1743769;81;21158;-67
2020/12/07 09:28:53;;;;;;;19.73;9.63;;;;;;;-3.30;59.23;101021.72;1745325;81;21133;-69
2020/12/07 09:31:29;;;;;;;25.90;11.28;;;;;;;-3.25;59.17;101017.95;1742380;81;21182;-68
2020/12/07 09:33:56;;;;;;;32.13;14.03;;;;;;;-3.19;59.02;101018.52;1740309;81;21114;-68
2020/12/07 09:36:24;;;;;;;23.47;11.18;;;;;;;-3.12;58.79;101017.77;1737651;82;21583;-68
2020/12/07 09:39:32;;;;;;;41.80;10.58;;;;;;;-3.05;58.27;101020.00;1744595;81;21161;-68
2020/12/07 09:42:02;;;;;;;25.45;9.40;;;;;;;-3.03;58.16;101008.52;1740521;81;21127;-69
2020/12/07 09:44:31;;;;;;;25.92;10.13;;;;;;;-3.02;57.72;101003.96;1683542;84;21191;-67
2020/12/07 09:47:00;;;;;;;34.20;12.05;;;;;;;-3.05;57.27;101005.17;1742761;81;21170;-67
2020/12/07 09:49:29;;;;;;;25.95;11.90;;;;;;;-3.09;57.66;101002.55;1743234;81;21556;-68
2020/12/07 09:52:00;;;;;;;25.17;9.48;;;;;;;-3.08;57.46;101002.86;1740954;81;21284;-68
2020/12/07 09:54:37;;;;;;;20.57;9.73;;;;;;;-3.05;57.53;101006.52;1741208;81;21150;-66
2020/12/07 09:57:04;;;;;;;25.02;10.13;;;;;;;-3.04;57.45;100992.02;1741139;81;21595;-68
2020/12/07 09:59:34;;;;;;;22.05;11.68;;;;;;;-3.01;57.30;100997.02;1743979;81;21108;-68
2020/12/07 10:02:04;;;;;;;37.67;11.80;;;;;;;-3.01;57.13;100988.09;1743715;81;21098;-68
2020/12/07 10:04:33;;;;;;;26.37;11.20;;;;;;;-3.00;57.30;100983.84;1743377;81;21210;-68
2020/12/07 10:07:21;;;;;;;19.15;9.18;;;;;;;-2.93;57.53;100981.20;1748750;81;21194;-69
2020/12/07 10:09:50;;;;;;;27.05;10.40;;;;;;;-2.83;57.53;100980.86;1738074;82;21174;-68
2020/12/07 10:12:22;;;;;;;24.77;11.10;;;;;;;-2.75;57.44;100985.31;1744901;81;21213;-68
2020/12/07 10:14:55;;;;;;;26.12;13.13;;;;;;;-2.70;57.26;100984.20;1747783;81;21649;-69
2020/12/07 10:17:22;;;;;;;21.02;11.08;;;;;;;-2.62;57.41;100980.52;1758410;80;21193;-69
2020/12/07 10:19:51;;;;;;;26.17;10.70;;;;;;;-2.52;57.50;100969.37;1750559;82;21166;-70
2020/12/07 10:22:19;;;;;;;23.87;9.98;;;;;;;-2.43;57.00;100969.55;1754926;80;21122;-67
2020/12/07 10:25:05;;;;;;;26.45;9.60;;;;;;;-2.38;56.95;100977.89;1750671;82;21094;-68
2020/12/07 10:27:32;;;;;;;23.73;10.30;;;;;;;-2.31;56.60;100973.88;1754989;80;21595;-69
2020/12/07 10:30:03;;;;;;;22.62;9.45;;;;;;;-2.29;56.11;100970.98;1759184;80;21817;-69
2020/12/07 10:32:31;;;;;;;24.35;9.13;;;;;;;-2.32;55.97;100973.58;1757959;80;21582;-68
2020/12/07 10:34:59;;;;;;;26.42;8.90;;;;;;;-2.33;55.95;100973.24;1699082;83;21165;-68
2020/12/07 10:37:28;;;;;;;25.12;10.88;;;;;;;-2.33;55.98;100966.48;1701972;83;21130;-67
2020/12/07 10:39:57;;;;;;;18.90;9.38;;;;;;;-2.27;56.07;100967.57;1707262;83;21138;-66
2020/12/07 10:42:27;;;;;;;20.40;8.83;;;;;;;-2.22;55.74;100961.06;1707132;83;21145;-66
2020/12/07 10:44:57;;;;;;;22.42;9.55;;;;;;;-2.22;55.42;100956.47;1719184;82;21555;-66
2020/12/07 10:47:28;;;;;;;25.43;9.70;;;;;;;-2.21;55.48;100949.20;1701189;83;21178;-66
2020/12/07 10:49:56;;;;;;;32.53;9.60;;;;;;;-2.17;55.70;100941.03;1699827;83;21138;-67
2020/12/07 10:52:35;;;;;;;30.05;11.63;;;;;;;-2.11;55.23;100945.63;1689841;83;21095;-68
2020/12/07 11:25:18;;;;;;;26.60;10.70;;;;;;;-1.92;54.49;100913.49;1749594;81;21178;-68
2020/12/07 11:27:47;;;;;;;28.55;10.20;;;;;;;-1.80;54.34;100906.98;1738256;82;21598;-68
2020/12/07 11:30:17;;;;;;;18.90;9.43;;;;;;;-1.72;53.93;100901.39;1738137;82;21138;-67
2020/12/07 11:32:51;;;;;;;26.65;9.53;;;;;;;-1.65;53.84;100892.45;1742287;81;21598;-66
2020/12/07 11:35:20;;;;;;;29.42;9.53;;;;;;;-1.53;53.87;100896.23;1742061;81;21177;-67
2020/12/07 11:37:55;;;;;;;18.67;8.98;;;;;;;-1.36;53.90;100890.42;1736474;81;22121;-69
2020/12/07 11:45:47;;;;;;;29.63;10.68;;;;;;;-1.09;52.55;100882.86;1766361;80;21157;-67
2020/12/07 11:48:17;;;;;;;28.25;10.32;;;;;;;-1.00;52.61;100894.61;1770119;80;21209;-68
2020/12/07 11:50:46;;;;;;;26.40;10.20;;;;;;;-0.91;52.60;100901.16;1758267;80;21121;-68
2020/12/07 11:53:14;;;;;;;26.25;10.05;;;;;;;-0.80;52.38;100892.39;1751430;81;21153;-67
2020/12/07 11:55:47;;;;;;;26.73;10.28;;;;;;;-0.75;52.25;100885.83;1753472;81;21665;-68
2020/12/07 11:58:16;;;;;;;23.92;9.63;;;;;;;-0.66;52.05;100882.89;1757240;81;21164;-67
2020/12/07 12:00:47;;;;;;;;;;;;;;;-0.61;51.83;100889.86;1751813;81;21372;-67
2020/12/07 12:03:17;;;;;;;25.43;12.20;;;;;;;-0.60;51.54;100888.83;1699661;83;20197;-68
2020/12/07 12:05:45;;;;;;;20.37;9.25;;;;;;;-0.58;51.73;100885.38;1699184;84;21109;-67
2020/12/07 12:08:15;;;;;;;22.13;9.88;;;;;;;-0.48;51.61;100892.23;1703121;84;21114;-68
2020/12/07 12:10:51;;;;;;;29.05;10.90;;;;;;;-0.41;51.51;100880.87;1695335;84;21160;-70
2020/12/07 12:13:23;;;;;;;19.90;10.05;;;;;;;-0.37;51.31;100884.80;1703401;84;21212;-67
2020/12/07 12:15:54;;;;;;;31.55;10.63;;;;;;;-0.35;51.09;100877.30;1696504;84;21909;-68
2020/12/07 12:18:23;;;;;;;25.45;9.60;;;;;;;-0.37;50.56;100887.51;1703098;84;21176;-68
2020/12/07 12:20:56;;;;;;;20.43;10.10;;;;;;;-0.44;50.42;100881.27;1709124;83;21637;-67
2020/12/07 12:23:25;;;;;;;18.73;9.63;;;;;;;-0.47;50.27;100867.64;1688556;84;21563;-68
2020/12/07 12:25:56;;;;;;;23.42;10.72;;;;;;;-0.54;50.29;100870.38;1722005;83;21178;-68
2020/12/07 12:28:24;;;;;;;22.93;9.68;;;;;;;-0.63;50.55;100876.53;1718400;83;21139;-68
2020/12/07 12:30:52;;;;;;;17.95;9.13;;;;;;;-0.62;50.63;100884.14;1671616;84;21166;-68
2020/12/07 12:33:44;;;;;;;20.50;9.05;;;;;;;-0.61;50.61;100889.86;1676442;84;21149;-68
2020/12/07 12:36:20;;;;;;;21.00;9.20;;;;;;;-0.62;50.55;100890.91;1696228;84;21114;-68
2020/12/07 12:38:47;;;;;;;24.20;9.70;;;;;;;-0.62;50.51;100884.98;1702782;83;21209;-67
2020/12/07 12:41:24;;;;;;;23.42;9.68;;;;;;;-0.64;50.33;100887.58;1671097;84;21221;-66
2020/12/07 12:43:53;;;;;;;18.67;9.60;;;;;;;-0.66;50.40;100880.18;1740791;82;21174;-68
2020/12/07 12:46:32;;;;;;;31.02;11.18;;;;;;;-0.67;50.25;100883.44;1735364;82;21105;-67
2020/12/07 12:49:00;;;;;;;23.45;9.60;;;;;;;-0.71;50.11;100881.34;1744148;82;21086;-68
2020/12/07 12:51:33;;;;;;;27.13;10.72;;;;;;;-0.80;50.24;100876.69;1740693;82;21618;-68
2020/12/07 12:54:01;;;;;;;24.60;11.70;;;;;;;-0.87;50.40;100872.64;1721642;82;21117;-67
2020/12/07 12:56:30;;;;;;;19.20;9.88;;;;;;;-0.91;50.49;100874.09;1735160;82;21144;-68
2020/12/07 12:58:58;;;;;;;23.77;10.93;;;;;;;-0.98;50.67;100872.74;1743453;82;21153;-67
2020/12/07 13:01:27;;;;;;;18.87;9.00;;;;;;;-1.06;50.34;100877.86;1732379;82;21186;-66
2020/12/07 13:03:58;;;;;;;28.25;9.75;;;;;;;-1.19;50.55;100869.72;1737895;82;21377;-68
2020/12/07 13:06:46;;;;;;;18.20;9.40;;;;;;;-1.29;50.76;100864.73;1737089;82;21576;-67
2020/12/07 13:09:18;;;;;;;24.80;9.65;;;;;;;-1.38;50.94;100870.89;1699509;82;21145;-67
2020/12/07 13:11:51;;;;;;;20.57;10.48;;;;;;;-1.46;51.38;100869.20;1733201;82;21111;-66
2020/12/07 13:14:19;;;;;;;18.20;9.48;;;;;;;-1.48;51.54;100856.40;1740595;82;21113;-69
2020/12/07 13:19:22;;;;;;;23.75;9.78;;;;;;;-1.70;51.38;100872.80;1738055;82;21114;-67
2020/12/07 13:22:04;;;;;;;21.85;10.20;;;;;;;-1.79;51.59;100868.09;1734600;82;21170;-67
2020/12/07 13:24:57;;;;;;;20.50;10.38;;;;;;;-1.85;51.93;100867.58;1736125;82;21153;-68
2020/12/07 13:27:44;;;;;;;28.87;11.73;;;;;;;-1.94;51.72;100862.05;1721277;82;21114;-67
2020/12/07 13:30:11;;;;;;;26.45;10.05;;;;;;;-2.12;51.75;100858.04;1733987;82;21607;-68